createdAt,value
2018-10-12T00:01:02.552Z,12.00
2018-10-12T00:03:31.587Z,12.57
2018-10-12T00:06:01.603Z,12.97
2018-10-12T00:08:31.582Z,12.80
2018-10-12T00:11:03.986Z,11.83
2018-10-12T00:19:27.791Z,11.30
2018-10-12T00:21:56.684Z,11.70
2018-10-12T00:24:30.585Z,12.20
2018-10-12T00:26:59.492Z,12.03
2018-10-12T00:29:28.530Z,11.87
2018-10-12T00:32:03.235Z,11.97
2018-10-12T00:34:34.151Z,12.13
2018-10-12T00:37:03.048Z,12.20
2018-10-12T00:39:31.962Z,11.77
2018-10-12T00:42:00.848Z,10.73
2018-10-12T00:44:29.752Z,11.77
2018-10-12T00:46:58.676Z,11.53
2018-10-12T00:49:27.639Z,11.47
2018-10-12T00:51:56.564Z,11.00
2018-10-12T00:54:25.468Z,11.47
2018-10-12T00:56:54.394Z,11.43
2018-10-12T00:59:23.263Z,11.40
2018-10-12T01:01:52.210Z,11.77
2018-10-12T01:04:31.588Z,11.07
2018-10-12T01:07:00.504Z,11.07
2018-10-12T01:09:29.425Z,11.27
2018-10-12T01:12:09.625Z,11.00
2018-10-12T01:14:38.501Z,11.27
2018-10-12T01:17:07.421Z,10.97
2018-10-12T01:19:41.954Z,10.73
2018-10-12T01:22:10.849Z,10.50
2018-10-12T01:24:39.794Z,9.93
2018-10-12T01:27:08.713Z,10.10
2018-10-12T01:29:43.979Z,10.30
2018-10-12T01:32:17.053Z,10.07
2018-10-12T01:34:46.145Z,10.37
2018-10-12T01:40:11.970Z,10.03
2018-10-12T01:42:40.862Z,8.60
2018-10-12T01:45:09.900Z,9.53
2018-10-12T01:47:38.815Z,8.97
2018-10-12T01:50:07.713Z,9.37
2018-10-12T01:52:36.635Z,9.50
2018-10-12T01:55:05.598Z,9.20
2018-10-12T01:57:34.497Z,9.30
2018-10-12T02:00:03.435Z,9.20
2018-10-12T02:02:32.309Z,8.47
2018-10-12T02:05:01.223Z,9.27
2018-10-12T02:07:37.366Z,8.87
2018-10-12T02:10:06.379Z,9.07
2018-10-12T02:12:37.289Z,9.27
2018-10-12T02:15:06.609Z,8.70
2018-10-12T02:17:35.517Z,8.43
2018-10-12T02:20:04.597Z,8.53
2018-10-12T02:25:30.456Z,8.80
2018-10-12T02:27:59.423Z,9.03
2018-10-12T02:30:36.469Z,9.20
2018-10-12T02:33:05.582Z,9.00
2018-10-12T02:35:34.459Z,8.53
2018-10-12T02:38:17.303Z,8.60
2018-10-12T02:40:50.066Z,8.40
2018-10-12T02:43:19.985Z,8.60
2018-10-12T02:45:48.966Z,9.23
2018-10-12T02:48:28.126Z,8.90
2018-10-12T02:50:57.029Z,9.00
2018-10-12T02:53:25.971Z,9.07
2018-10-12T02:55:58.342Z,8.43
2018-10-12T02:58:27.226Z,8.47
2018-10-12T03:00:56.101Z,8.50
2018-10-12T03:03:25.116Z,7.93
2018-10-12T03:05:54.003Z,8.53
2018-10-12T03:08:22.900Z,8.53
2018-10-12T03:13:46.703Z,8.23
2018-10-12T03:16:15.713Z,8.50
2018-10-12T03:18:44.738Z,8.07
2018-10-12T03:21:15.740Z,8.80
2018-10-12T03:23:44.695Z,7.30
2018-10-12T03:26:13.614Z,8.00
2018-10-12T03:28:45.932Z,7.67
2018-10-12T03:31:14.880Z,7.60
2018-10-12T03:33:43.778Z,8.27
2018-10-12T03:36:30.093Z,7.80
2018-10-12T03:38:58.971Z,8.03
2018-10-12T03:41:27.876Z,7.83
2018-10-12T03:44:01.458Z,7.80
2018-10-12T03:46:35.156Z,7.67
2018-10-12T03:49:04.025Z,8.30
2018-10-12T03:51:33.961Z,7.70
2018-10-12T03:54:07.466Z,8.00
2018-10-12T03:56:49.065Z,7.77
2018-10-12T03:59:34.489Z,7.23
2018-10-12T04:02:15.653Z,7.67
2018-10-12T04:04:48.180Z,7.87
2018-10-12T04:07:17.182Z,7.80
2018-10-12T04:09:48.131Z,7.67
2018-10-12T04:12:18.031Z,7.53
2018-10-12T04:14:50.091Z,7.43
2018-10-12T04:17:33.880Z,7.90
2018-10-12T04:20:02.803Z,7.80
2018-10-12T04:22:33.809Z,7.40
2018-10-12T04:25:09.767Z,7.57
2018-10-12T04:27:38.619Z,7.33
2018-10-12T04:33:01.563Z,7.13
2018-10-12T04:35:30.477Z,7.10
2018-10-12T04:37:59.443Z,6.67
2018-10-12T04:41:15.561Z,7.00
2018-10-12T04:43:45.191Z,7.30
2018-10-12T04:46:22.502Z,6.87
2018-10-12T04:49:06.117Z,7.23
2018-10-12T04:51:46.261Z,7.43
2018-10-12T04:54:18.879Z,7.40
2018-10-12T04:56:48.329Z,7.37
2018-10-12T04:59:23.890Z,7.17
2018-10-12T05:02:02.873Z,7.27
2018-10-12T05:04:47.879Z,7.90
2018-10-12T05:07:29.440Z,6.97
2018-10-12T05:10:03.319Z,7.10
2018-10-12T05:12:32.219Z,6.97
2018-10-12T05:15:01.146Z,7.23
2018-10-12T05:17:30.053Z,6.30
2018-10-12T05:19:59.031Z,6.77
2018-10-12T05:25:35.538Z,6.50
2018-10-12T05:28:04.540Z,6.93
2018-10-12T05:36:26.075Z,6.90
2018-10-12T05:39:00.133Z,6.70
2018-10-12T05:41:37.316Z,6.90
2018-10-12T05:44:09.874Z,6.90
2018-10-12T05:46:48.873Z,6.40
2018-10-12T05:49:29.298Z,6.70
2018-10-12T05:52:02.200Z,6.50
2018-10-12T05:54:41.203Z,7.13
2018-10-12T05:57:26.409Z,6.07
2018-10-12T06:00:06.845Z,6.53
2018-10-12T06:02:35.762Z,6.97
2018-10-12T06:05:05.092Z,6.67
2018-10-12T06:07:34.184Z,6.40
2018-10-12T06:10:22.806Z,6.27
2018-10-12T06:12:52.803Z,7.23
2018-10-12T06:18:32.294Z,6.77
2018-10-12T06:21:01.196Z,6.67
2018-10-12T06:23:31.109Z,8.50
2018-10-12T06:28:58.520Z,6.93
2018-10-12T06:31:33.909Z,7.03
2018-10-12T06:34:02.854Z,7.80
2018-10-12T06:36:39.681Z,8.37
2018-10-12T06:39:13.095Z,7.27
2018-10-12T06:41:42.250Z,7.00
2018-10-12T06:44:10.985Z,8.00
2018-10-12T06:46:42.083Z,6.30
2018-10-12T06:49:10.845Z,6.67
2018-10-12T06:51:39.719Z,6.23
2018-10-12T06:54:09.149Z,6.60
2018-10-12T06:56:38.040Z,6.80
2018-10-12T07:02:01.706Z,6.40
2018-10-12T07:04:30.640Z,6.47
2018-10-12T07:06:59.574Z,6.33
2018-10-12T07:09:28.503Z,6.87
2018-10-12T07:11:57.359Z,6.67
2018-10-12T07:14:28.481Z,6.63
2018-10-12T07:16:58.473Z,7.60
2018-10-12T07:19:35.056Z,6.97
2018-10-12T07:22:05.200Z,6.27
2018-10-12T07:24:34.317Z,6.37
2018-10-12T07:27:03.554Z,6.13
2018-10-12T07:29:32.498Z,6.27
2018-10-12T07:32:01.482Z,6.27
2018-10-12T07:34:31.455Z,5.83
2018-10-12T07:37:00.413Z,6.17
2018-10-12T07:39:29.280Z,6.03
2018-10-12T07:41:58.162Z,6.23
2018-10-12T07:44:28.159Z,5.30
2018-10-12T07:46:57.050Z,6.67
2018-10-12T07:49:26.017Z,5.90
2018-10-12T07:51:54.968Z,5.73
2018-10-12T07:54:23.879Z,5.97
2018-10-12T07:56:52.780Z,5.27
2018-10-12T07:59:21.650Z,5.40
2018-10-12T08:01:50.567Z,4.90
2018-10-12T08:04:19.591Z,4.90
2018-10-12T08:06:53.992Z,5.60
2018-10-12T08:09:22.855Z,5.27
2018-10-12T08:11:57.227Z,4.47
2018-10-12T08:14:50.079Z,4.43
2018-10-12T08:17:18.986Z,5.80
2018-10-12T08:19:58.115Z,5.33
2018-10-12T08:22:31.674Z,4.43
2018-10-12T08:25:04.203Z,4.10
2018-10-12T08:27:39.574Z,4.43
2018-10-12T08:30:13.709Z,4.20
2018-10-12T08:32:49.812Z,3.87
2018-10-12T08:35:18.737Z,4.57
2018-10-12T08:37:50.917Z,4.47
2018-10-12T08:40:21.833Z,4.27
2018-10-12T08:42:50.798Z,4.17
2018-10-12T08:45:19.937Z,3.93
2018-10-12T08:47:53.894Z,4.30
2018-10-12T08:50:22.853Z,4.40
2018-10-12T08:53:08.315Z,4.07
2018-10-12T08:55:42.927Z,4.30
2018-10-12T08:58:22.314Z,4.80
2018-10-12T09:01:01.209Z,4.40
2018-10-12T09:03:33.611Z,4.33
2018-10-12T09:06:07.430Z,3.67
2018-10-12T09:08:37.455Z,4.80
2018-10-12T09:11:07.733Z,3.93
2018-10-12T09:13:39.255Z,3.60
2018-10-12T09:16:11.915Z,4.03
2018-10-12T09:18:46.649Z,3.90
2018-10-12T09:21:19.611Z,4.00
2018-10-12T09:23:56.981Z,3.70
2018-10-12T09:26:30.920Z,4.00
2018-10-12T09:29:00.121Z,3.60
2018-10-12T09:31:42.959Z,3.93
2018-10-12T09:34:12.294Z,3.93
2018-10-12T09:36:45.833Z,3.63
2018-10-12T09:39:21.860Z,4.03
2018-10-12T09:41:56.653Z,4.10
2018-10-12T09:44:45.100Z,3.93
2018-10-12T09:47:14.034Z,3.83
2018-10-12T09:49:42.973Z,3.70
2018-10-12T09:52:18.696Z,3.97
2018-10-12T09:54:58.348Z,4.20
2018-10-12T09:57:33.635Z,4.10
2018-10-12T10:00:04.905Z,3.67
2018-10-12T10:02:43.968Z,3.80
2018-10-12T10:05:25.073Z,3.77
2018-10-12T10:08:06.306Z,4.20
2018-10-12T10:10:40.885Z,4.00
2018-10-12T10:13:14.127Z,3.43
2018-10-12T10:18:38.600Z,3.80
2018-10-12T10:21:12.236Z,3.30
2018-10-12T10:23:41.195Z,3.30
2018-10-12T10:26:10.748Z,4.33
2018-10-12T10:28:44.367Z,3.33
2018-10-12T10:31:16.957Z,3.70
2018-10-12T10:33:48.019Z,3.67
2018-10-12T10:36:27.748Z,3.50
2018-10-12T10:38:57.762Z,3.47
2018-10-12T10:41:39.645Z,3.53
2018-10-12T10:44:14.570Z,3.30
2018-10-12T10:46:55.797Z,3.90
2018-10-12T10:49:31.114Z,3.77
2018-10-12T10:52:07.125Z,3.33
2018-10-12T10:54:43.814Z,3.73
2018-10-12T10:57:13.942Z,3.40
2018-10-12T10:59:43.488Z,3.43
2018-10-12T11:02:13.997Z,3.60
2018-10-12T11:04:43.987Z,3.30
2018-10-12T11:07:19.943Z,3.27
2018-10-12T11:09:49.649Z,3.50
2018-10-12T11:12:19.183Z,3.50
2018-10-12T11:14:48.781Z,2.60
2018-10-12T11:17:18.154Z,2.90
2018-10-12T11:19:47.605Z,3.00
2018-10-12T11:22:22.144Z,3.13
2018-10-12T11:24:56.100Z,3.20
2018-10-12T11:27:24.992Z,3.40
2018-10-12T11:29:53.916Z,4.30
2018-10-12T11:32:22.776Z,3.10
2018-10-12T11:34:51.696Z,3.80
2018-10-12T11:37:20.604Z,3.23
2018-10-12T11:39:53.142Z,3.50
2018-10-12T11:42:36.921Z,3.60
2018-10-12T11:48:00.768Z,3.07
2018-10-12T11:50:35.109Z,2.70
2018-10-12T11:53:15.551Z,2.93
2018-10-12T11:55:48.050Z,3.00
2018-10-12T11:58:18.194Z,3.00
2018-10-12T12:00:59.035Z,2.80
2018-10-12T12:03:27.883Z,3.03
2018-10-12T12:05:57.859Z,2.70
2018-10-12T12:08:27.796Z,3.27
2018-10-12T12:10:56.794Z,3.20
2018-10-12T12:13:30.522Z,3.30
2018-10-12T12:16:01.459Z,2.80
2018-10-12T12:18:30.448Z,3.13
2018-10-12T12:20:59.402Z,3.10
2018-10-12T12:23:36.343Z,2.90
2018-10-12T12:26:18.455Z,2.90
2018-10-12T12:28:47.349Z,2.70
2018-10-12T12:31:16.250Z,2.53
2018-10-12T12:33:45.157Z,2.50
2018-10-12T12:36:36.355Z,2.63
2018-10-12T12:39:07.030Z,2.63
2018-10-12T12:41:40.778Z,2.70
2018-10-12T12:44:11.849Z,3.10
2018-10-12T12:46:46.223Z,2.97
2018-10-12T12:49:16.055Z,2.40
2018-10-12T12:51:46.629Z,2.57
2018-10-12T12:54:22.778Z,2.50
2018-10-12T12:56:51.796Z,2.60
2018-10-12T12:59:26.278Z,2.77
2018-10-12T13:01:56.187Z,2.67
2018-10-12T13:04:30.647Z,2.87
2018-10-12T13:07:12.789Z,2.83
2018-10-12T13:09:41.721Z,2.63
2018-10-12T13:12:20.667Z,2.87
2018-10-12T13:14:49.619Z,2.90
2018-10-12T13:17:18.590Z,2.63
2018-10-12T13:20:03.571Z,2.63
2018-10-12T13:22:48.309Z,3.40
2018-10-12T13:25:17.881Z,2.50
2018-10-12T13:27:47.352Z,2.30
2018-10-12T13:30:16.684Z,2.50
2018-10-12T13:32:46.100Z,2.80
2018-10-12T13:35:15.381Z,3.53
2018-10-12T13:37:51.571Z,2.90
2018-10-12T13:40:21.099Z,2.77
2018-10-12T13:42:50.908Z,2.40
2018-10-12T13:45:20.439Z,2.30
2018-10-12T13:48:08.983Z,2.80
2018-10-12T13:50:40.430Z,2.50
2018-10-12T13:53:16.265Z,2.43
2018-10-12T13:55:45.233Z,2.27
2018-10-12T13:58:19.034Z,2.40
2018-10-12T14:00:49.961Z,2.20
2018-10-12T14:03:36.506Z,2.30
2018-10-12T14:06:10.168Z,2.80
2018-10-12T14:08:44.102Z,2.40
2018-10-12T14:11:15.023Z,2.40
2018-10-12T14:13:44.018Z,2.50
2018-10-12T14:16:14.204Z,2.30
2018-10-12T14:18:48.772Z,2.37
2018-10-12T14:21:17.640Z,2.80
2018-10-12T14:23:46.603Z,2.17
2018-10-12T14:26:16.515Z,2.30
2018-10-12T14:28:46.686Z,2.40
2018-10-12T14:31:16.838Z,2.87
2018-10-12T14:33:46.841Z,2.97
2018-10-12T14:36:15.789Z,2.20
2018-10-12T14:38:44.773Z,2.30
2018-10-12T14:41:13.693Z,2.40
2018-10-12T14:43:44.742Z,2.43
2018-10-12T14:46:13.686Z,2.50
2018-10-12T14:48:50.323Z,2.60
2018-10-12T14:51:33.223Z,2.43
2018-10-12T14:54:02.206Z,2.30
2018-10-12T14:59:05.141Z,2.33
2018-10-12T15:01:37.761Z,2.50
2018-10-12T15:04:16.616Z,2.60
2018-10-12T15:07:03.332Z,2.10
2018-10-12T15:09:34.301Z,2.87
2018-10-12T15:12:20.232Z,2.57
2018-10-12T15:15:00.358Z,2.50
2018-10-12T15:17:39.065Z,2.17
2018-10-12T15:20:11.441Z,2.23
2018-10-12T15:22:40.498Z,2.80
2018-10-12T15:25:10.586Z,2.43
2018-10-12T15:27:40.098Z,2.47
2018-10-12T15:30:13.319Z,2.40
2018-10-12T15:32:45.813Z,2.80
2018-10-12T15:35:17.154Z,3.17
2018-10-12T15:37:49.853Z,7.33
2018-10-12T15:40:23.792Z,3.03
2018-10-12T15:42:52.907Z,2.63
2018-10-12T15:45:23.885Z,2.97
2018-10-12T15:47:54.162Z,2.97
2018-10-12T15:50:23.205Z,2.43
2018-10-12T15:52:58.476Z,2.50
2018-10-12T15:55:31.373Z,2.87
2018-10-12T15:58:00.267Z,3.00
2018-10-12T16:00:31.320Z,2.93
2018-10-12T16:03:08.478Z,2.90
2018-10-12T16:05:42.017Z,2.37
2018-10-12T16:08:16.856Z,2.80
2018-10-12T16:10:50.072Z,3.97
2018-10-12T16:13:20.011Z,2.93
2018-10-12T16:15:53.193Z,3.23
2018-10-12T16:18:22.185Z,2.90
2018-10-12T16:20:51.133Z,3.03
2018-10-12T16:23:23.509Z,2.93
2018-10-12T16:26:04.016Z,4.13
2018-10-12T16:28:36.390Z,3.63
2018-10-12T16:31:12.496Z,3.57
2018-10-12T16:33:44.685Z,3.57
2018-10-12T16:36:27.533Z,3.50
2018-10-12T16:39:09.031Z,3.67
2018-10-12T16:41:38.355Z,3.20
2018-10-12T16:44:13.024Z,3.10
2018-10-12T16:46:52.347Z,3.00
2018-10-12T16:49:22.293Z,3.30
2018-10-12T16:51:55.769Z,2.53
2018-10-12T16:54:33.243Z,2.60
2018-10-12T16:57:07.928Z,2.97
2018-10-12T16:59:37.904Z,2.90
2018-10-12T17:02:12.182Z,2.77
2018-10-12T17:04:41.188Z,2.73
2018-10-12T17:07:19.606Z,3.30
2018-10-12T17:09:53.157Z,2.70
2018-10-12T17:12:26.268Z,3.10
2018-10-12T17:14:55.193Z,3.20
2018-10-12T17:17:40.922Z,3.10
2018-10-12T17:20:13.903Z,3.10
2018-10-12T17:22:55.614Z,2.80
2018-10-12T17:25:37.533Z,3.10
2018-10-12T17:28:21.277Z,3.47
2018-10-12T17:30:51.344Z,3.60
2018-10-12T17:33:22.947Z,3.83
2018-10-12T17:35:59.242Z,3.50
2018-10-12T17:38:33.120Z,4.10
2018-10-12T17:41:10.782Z,3.93
2018-10-12T17:43:43.184Z,3.60
2018-10-12T17:46:12.133Z,3.70
2018-10-12T17:48:41.125Z,3.60
2018-10-12T17:51:12.761Z,4.17
2018-10-12T17:53:42.664Z,4.00
2018-10-12T17:56:12.683Z,3.90
2018-10-12T17:58:53.973Z,4.07
2018-10-12T18:01:29.937Z,4.00
2018-10-12T18:03:59.146Z,4.17
2018-10-12T18:06:30.050Z,3.83
2018-10-12T18:08:59.113Z,3.77
2018-10-12T18:11:28.105Z,3.63
2018-10-12T18:13:57.056Z,3.73
2018-10-12T18:19:21.350Z,3.60
2018-10-12T18:21:55.083Z,3.00
2018-10-12T18:24:25.079Z,3.90
2018-10-12T18:26:54.049Z,3.30
2018-10-12T18:29:27.055Z,3.33
2018-10-12T18:32:01.485Z,3.07
2018-10-12T18:34:46.529Z,3.00
2018-10-12T18:37:20.973Z,3.23
2018-10-12T18:40:06.550Z,3.40
2018-10-12T18:42:36.437Z,3.60
2018-10-12T18:45:07.592Z,3.33
2018-10-12T18:47:46.671Z,3.97
2018-10-12T18:50:16.580Z,3.50
2018-10-12T18:52:51.157Z,3.67
2018-10-12T18:55:30.828Z,3.43
2018-10-12T18:57:59.773Z,4.17
2018-10-12T19:00:28.749Z,3.90
2018-10-12T19:03:04.165Z,3.47
2018-10-12T19:05:35.128Z,4.03
2018-10-12T19:08:04.078Z,4.50
2018-10-12T19:10:33.966Z,4.40
2018-10-12T19:13:08.788Z,4.07
2018-10-12T19:15:37.709Z,4.37
2018-10-12T19:18:11.429Z,4.27
2018-10-12T19:20:45.521Z,4.90
2018-10-12T19:23:17.575Z,4.07
2018-10-12T19:26:01.602Z,4.37
2018-10-12T19:28:33.220Z,3.50
2018-10-12T19:31:02.462Z,4.50
2018-10-12T19:33:31.455Z,3.90
2018-10-12T19:36:14.249Z,4.00
2018-10-12T19:38:49.648Z,3.90
2018-10-12T19:41:22.230Z,3.57
2018-10-12T19:43:56.328Z,4.03
2018-10-12T19:46:28.389Z,4.20
2018-10-12T19:48:57.442Z,4.00
2018-10-12T19:51:39.595Z,3.90
2018-10-12T19:54:10.616Z,3.70
2018-10-12T19:56:39.694Z,4.00
2018-10-12T19:59:13.958Z,4.33
2018-10-12T20:01:54.027Z,4.30
2018-10-12T20:04:26.351Z,4.20
2018-10-12T20:06:55.255Z,4.70
2018-10-12T20:09:26.154Z,4.33
2018-10-12T20:11:55.114Z,4.47
2018-10-12T20:14:28.143Z,4.07
2018-10-12T20:16:57.095Z,4.00
2018-10-12T20:19:26.075Z,4.10
2018-10-12T20:22:15.216Z,3.90
2018-10-12T20:24:44.147Z,4.07
2018-10-12T20:27:16.217Z,4.50
2018-10-12T20:29:45.180Z,4.40
2018-10-12T20:32:26.470Z,4.10
2018-10-12T20:34:58.036Z,4.30
2018-10-12T20:37:30.332Z,5.33
2018-10-12T20:40:02.509Z,4.90
2018-10-12T20:42:46.169Z,4.50
2018-10-12T20:45:15.113Z,4.37
2018-10-12T20:47:46.180Z,4.00
2018-10-12T20:50:15.254Z,4.03
2018-10-12T20:52:50.344Z,3.87
2018-10-12T20:55:19.398Z,4.13
2018-10-12T20:57:50.688Z,4.13
2018-10-12T21:00:26.600Z,3.80
2018-10-12T21:02:57.565Z,4.30
2018-10-12T21:05:27.630Z,4.17
2018-10-12T21:07:56.586Z,4.20
2018-10-12T21:10:42.651Z,4.07
2018-10-12T21:13:25.749Z,4.17
2018-10-12T21:16:07.607Z,4.40
2018-10-12T21:18:40.007Z,4.37
2018-10-12T21:21:12.331Z,4.10
2018-10-12T21:23:43.397Z,3.77
2018-10-12T21:26:13.422Z,3.80
2018-10-12T21:28:43.462Z,3.93
2018-10-12T21:31:32.047Z,3.70
2018-10-12T21:34:08.902Z,3.83
2018-10-12T21:36:37.987Z,4.10
2018-10-12T21:39:08.166Z,4.13
2018-10-12T21:41:37.151Z,3.80
2018-10-12T21:44:09.687Z,3.77
2018-10-12T21:46:42.948Z,3.90
2018-10-12T21:49:19.409Z,3.90
2018-10-12T21:51:48.459Z,3.87
2018-10-12T21:54:17.619Z,4.20
2018-10-12T21:56:47.698Z,4.33
2018-10-12T21:59:16.720Z,3.90
2018-10-12T22:01:51.544Z,3.67
2018-10-12T22:04:21.468Z,4.07
2018-10-12T22:06:52.441Z,3.70
2018-10-12T22:09:27.239Z,3.53
2018-10-12T22:14:49.713Z,4.27
2018-10-12T22:17:18.712Z,3.90
2018-10-12T22:19:47.668Z,3.80
2018-10-12T22:22:22.566Z,3.77
2018-10-12T22:24:55.142Z,4.03
2018-10-12T22:27:28.304Z,3.80
2018-10-12T22:30:02.195Z,3.43
2018-10-12T22:32:37.046Z,3.77
2018-10-12T22:35:06.143Z,3.63
2018-10-12T22:37:36.104Z,4.20
2018-10-12T22:40:07.173Z,3.60
2018-10-12T22:42:37.487Z,3.30
2018-10-12T22:45:20.232Z,3.20
2018-10-12T22:47:53.377Z,3.63
2018-10-12T22:50:26.370Z,3.70
2018-10-12T22:52:57.293Z,3.40
2018-10-12T22:55:26.230Z,3.70
2018-10-12T22:58:09.753Z,3.30
2018-10-12T23:00:40.674Z,4.00
2018-10-12T23:03:29.631Z,3.73
2018-10-12T23:05:58.537Z,4.03
2018-10-12T23:08:35.011Z,3.83
2018-10-12T23:11:04.084Z,3.30
2018-10-12T23:13:39.564Z,3.70
2018-10-12T23:16:10.518Z,3.57
2018-10-12T23:18:43.310Z,3.23
2018-10-12T23:21:12.304Z,3.40
2018-10-12T23:23:41.259Z,3.70
2018-10-12T23:26:15.722Z,3.37
2018-10-12T23:29:02.879Z,3.80
2018-10-12T23:31:31.801Z,3.30
2018-10-12T23:34:06.894Z,3.60
2018-10-12T23:36:35.817Z,3.80
2018-10-12T23:39:07.920Z,3.53
2018-10-12T23:41:44.523Z,3.47
2018-10-12T23:44:27.783Z,4.10
2018-10-12T23:46:57.855Z,3.73
2018-10-12T23:49:30.730Z,3.70
2018-10-12T23:51:59.683Z,3.40
2018-10-12T23:54:39.662Z,3.53
2018-10-12T23:57:12.194Z,3.60
